This is the latest recevied weather packets stored in our database for station/object K2RMB. If no packets are shown the sender has not sent any weather packets the latest 1 day(s).
| Time | Temp. | Humidity | Pressure | Rain* | Wind** | Luminosity | Snow |
|---|---|---|---|---|---|---|---|
| 1778030816 | 15.56° C | 89% | 1010.1 hPa | 0 mm | - | 0 W/m² | - |
| 1778030211 | 15.56° C | 89% | 1010.1 hPa | 0 mm | - | 0 W/m² | - |
| 1778029907 | 15.56° C | 89% | 1009.8 hPa | 0 mm | - | 0 W/m² | - |
| 1778029606 | 15.56° C | 90% | 1009.8 hPa | 0 mm | - | 0 W/m² | - |
| 1778028999 | 15.56° C | 88% | 1009.3 hPa | 0 mm | - | 0 W/m² | - |
| 1778028696 | 16.11° C | 88% | 1009 hPa | 0 mm | - | 0 W/m² | - |
| 1778028392 | 15.56° C | 86% | 1009 hPa | 0 mm | - | 0 W/m² | - |
| 1778028090 | 15.56° C | 87% | 1009.3 hPa | 0 mm | - | 0 W/m² | - |
| 1778027786 | 15.56° C | 87% | 1009 hPa | 0 mm | - | 0 W/m² | - |
| 1778027178 | 15.56° C | 87% | 1009 hPa | 0 mm | - | 0 W/m² | - |
| 1778026874 | 15.56° C | 87% | 1009 hPa | 0 mm | - | 0 W/m² | - |
| 1778026268 | 16.11° C | 87% | 1008.6 hPa | 0 mm | - | 0 W/m² | - |
| 1778019602 | 17.78° C | 74% | 1008.6 hPa | 0.25 mm | - | 17 W/m² | - |
| 1778018391 | 20.56° C | 60% | 1007.3 hPa | 0 mm | - | 33 W/m² | - |
| 1778016879 | 24.44° C | 38% | 1006.2 hPa | 0 mm | - | 31 W/m² | - |
| 1778014455 | 26.67° C | 35% | 1005.8 hPa | 0 mm | - | 328 W/m² | - |
| 1778012939 | 25.56° C | 38% | 1005.5 hPa | 0 mm | - | 454 W/m² | - |
| 1778012635 | 25.56° C | 37% | 1005.8 hPa | 0 mm | - | 227 W/m² | - |
| 1778011424 | 26.11° C | 34% | 1005.8 hPa | 0 mm | - | 520 W/m² | - |
| 1778010817 | 26.67° C | 37% | 1005.8 hPa | 0 mm | - | 506 W/m² | - |
| 1778009906 | 25.56° C | 37% | 1006.2 hPa | 0 mm | - | 220 W/m² | - |
| 1778009302 | 26.11° C | 34% | 1005.8 hPa | 0 mm | - | 630 W/m² | - |
| 1778009000 | 25.56° C | 36% | 1005.8 hPa | 0 mm | - | 710 W/m² | - |
| 1778008092 | 26.11° C | 36% | 1006.2 hPa | 0 mm | - | 565 W/m² | - |
| 1778007180 | 26.11° C | 34% | 1006.2 hPa | 0 mm | - | 845 W/m² | - |
* Rain latest hour (hover to see other rain measurements)
** Current wind speed in m/s (hover to see current wind gust speed)